createdAt,value
2018-12-24T00:00:36.834Z,75.29
2018-12-24T00:03:33.389Z,75.20
2018-12-24T00:06:03.612Z,74.88
2018-12-24T00:11:25.750Z,74.81
2018-12-24T00:13:55.634Z,74.79
2018-12-24T00:16:25.486Z,74.58
2018-12-24T00:18:55.502Z,74.79
2018-12-24T00:21:25.400Z,74.65
2018-12-24T00:23:55.257Z,74.29
2018-12-24T00:26:25.199Z,74.89
2018-12-24T00:28:55.013Z,74.69
2018-12-24T00:31:24.838Z,74.79
2018-12-24T00:33:59.576Z,74.63
2018-12-24T00:36:48.402Z,74.69
2018-12-24T00:39:30.072Z,74.74
2018-12-24T00:42:00.064Z,74.97
2018-12-24T00:44:30.037Z,74.77
2018-12-24T00:47:00.519Z,74.80
2018-12-24T00:49:30.552Z,74.96
2018-12-24T00:52:19.287Z,74.92
2018-12-24T00:54:49.222Z,75.55
2018-12-24T00:57:19.195Z,75.58
2018-12-24T00:59:49.159Z,75.05
2018-12-24T01:02:19.155Z,75.35
2018-12-24T01:04:49.127Z,75.24
2018-12-24T01:07:19.308Z,75.21
2018-12-24T01:09:49.198Z,75.27
2018-12-24T01:12:24.511Z,75.19
2018-12-24T01:15:33.253Z,75.27
2018-12-24T01:18:25.376Z,75.32
2018-12-24T01:20:54.981Z,74.60
2018-12-24T01:23:24.395Z,75.00
2018-12-24T01:28:42.213Z,74.89
2018-12-24T01:31:11.674Z,74.83
2018-12-24T01:33:41.094Z,75.28
2018-12-24T01:36:10.706Z,75.41
2018-12-24T01:42:21.465Z,75.27
2018-12-24T01:44:51.556Z,75.02
2018-12-24T01:52:44.392Z,74.70
2018-12-24T01:57:52.987Z,74.65
2018-12-24T02:00:22.555Z,74.28
2018-12-24T02:02:52.076Z,74.26
2018-12-24T02:07:56.191Z,74.26
2018-12-24T02:10:25.921Z,74.05
2018-12-24T02:12:58.300Z,74.01
2018-12-24T02:15:27.785Z,73.97
2018-12-24T02:17:57.457Z,73.83
2018-12-24T02:20:26.931Z,74.25
2018-12-24T02:23:11.168Z,74.24
2018-12-24T02:25:40.588Z,73.82
2018-12-24T02:28:42.491Z,74.19
2018-12-24T02:33:56.214Z,74.01
2018-12-24T02:36:27.011Z,73.91
2018-12-24T02:38:56.533Z,73.30
2018-12-24T02:41:26.190Z,73.57
2018-12-24T02:43:58.755Z,73.61
2018-12-24T02:46:28.198Z,73.31
2018-12-24T02:49:10.227Z,73.60
2018-12-24T02:51:29.236Z,73.77
2018-12-24T02:53:58.656Z,73.90
2018-12-24T02:59:02.977Z,73.35
2018-12-24T03:01:32.713Z,73.37
2018-12-24T03:04:02.304Z,72.58
2018-12-24T03:06:32.079Z,72.21
2018-12-24T03:09:01.776Z,72.29
2018-12-24T03:11:50.376Z,72.90
2018-12-24T03:14:20.267Z,72.42
2018-12-24T03:16:49.719Z,72.66
2018-12-24T03:19:22.926Z,72.52
2018-12-24T03:21:52.433Z,72.19
2018-12-24T03:24:21.969Z,71.82
2018-12-24T03:26:51.527Z,71.47
2018-12-24T03:32:30.108Z,71.53
2018-12-24T03:35:23.126Z,71.40
2018-12-24T03:37:52.766Z,71.08
2018-12-24T03:40:22.335Z,70.69
2018-12-24T03:42:51.922Z,70.79
2018-12-24T03:45:59.319Z,70.78
2018-12-24T03:48:07.238Z,70.78
2018-12-24T03:50:48.154Z,70.36
2018-12-24T03:53:20.940Z,70.33
2018-12-24T03:58:38.938Z,70.30
2018-12-24T04:01:08.351Z,69.50
2018-12-24T04:03:37.757Z,69.61
2018-12-24T04:06:07.274Z,70.25
2018-12-24T04:08:36.701Z,69.48
2018-12-24T04:11:06.141Z,69.97
2018-12-24T04:13:35.602Z,70.32
2018-12-24T04:16:05.227Z,69.85
2018-12-24T04:18:53.654Z,70.52
2018-12-24T04:21:26.537Z,70.44
2018-12-24T04:23:56.019Z,70.98
2018-12-24T04:26:25.565Z,70.45
2018-12-24T04:28:55.032Z,70.99
2018-12-24T04:31:24.513Z,71.03
2018-12-24T04:33:54.130Z,70.89
2018-12-24T04:36:23.735Z,70.85
2018-12-24T04:38:53.221Z,71.28
2018-12-24T04:41:23.100Z,71.07
2018-12-24T04:49:44.156Z,71.46
2018-12-24T04:52:13.759Z,71.81
2018-12-24T04:54:43.351Z,71.71
2018-12-24T04:57:12.923Z,71.71
2018-12-24T04:59:43.018Z,71.94
2018-12-24T05:02:12.730Z,71.95
2018-12-24T05:04:42.180Z,71.75
2018-12-24T05:07:11.589Z,71.86
2018-12-24T05:09:41.034Z,71.54
2018-12-24T05:12:10.444Z,72.36
2018-12-24T05:14:39.885Z,72.24
2018-12-24T05:17:09.368Z,72.11
2018-12-24T05:19:38.802Z,72.03
2018-12-24T05:22:08.230Z,72.04
2018-12-24T05:24:49.236Z,71.99
2018-12-24T05:27:19.470Z,72.00
2018-12-24T05:35:48.489Z,71.52
2018-12-24T05:38:17.978Z,71.95
2018-12-24T05:40:47.368Z,71.83
2018-12-24T05:43:16.821Z,71.91
2018-12-24T05:54:10.676Z,72.92
2018-12-24T05:56:40.521Z,72.89
2018-12-24T05:59:10.537Z,72.65
2018-12-24T06:01:58.989Z,72.62
2018-12-24T06:04:28.744Z,72.31
2018-12-24T06:06:58.208Z,72.40
2018-12-24T06:09:28.044Z,72.47
2018-12-24T06:14:46.118Z,72.04
2018-12-24T06:17:15.637Z,71.54
2018-12-24T06:19:45.058Z,71.50
2018-12-24T06:22:14.544Z,70.98
2018-12-24T06:24:57.920Z,71.30
2018-12-24T06:27:15.425Z,71.02
2018-12-24T06:29:45.235Z,70.87
2018-12-24T06:32:14.669Z,71.03
2018-12-24T06:34:44.094Z,70.96
2018-12-24T06:37:15.983Z,70.97
2018-12-24T06:39:45.444Z,71.06
2018-12-24T06:42:14.941Z,71.01
2018-12-24T06:47:19.561Z,70.85
2018-12-24T06:57:41.991Z,71.63
2018-12-24T07:00:11.492Z,72.13
2018-12-24T07:02:40.940Z,72.17
2018-12-24T07:05:31.774Z,71.90
2018-12-24T07:08:01.397Z,72.15
2018-12-24T07:10:49.961Z,72.17
2018-12-24T07:13:19.831Z,72.11
2018-12-24T07:15:49.319Z,72.61
2018-12-24T07:18:19.081Z,72.72
2018-12-24T07:30:19.073Z,73.26
2018-12-24T07:36:11.784Z,73.74
2018-12-24T07:38:41.308Z,73.87
2018-12-24T07:41:10.793Z,73.95
2018-12-24T07:43:40.316Z,74.17
2018-12-24T07:49:07.226Z,74.31
2018-12-24T07:51:37.083Z,74.18
2018-12-24T07:57:22.341Z,74.32
2018-12-24T07:59:52.166Z,74.49
2018-12-24T08:02:21.629Z,74.56
2018-12-24T08:04:56.162Z,74.71
2018-12-24T08:07:25.535Z,74.83
2018-12-24T08:10:03.822Z,74.87
2018-12-24T08:12:33.337Z,75.17
2018-12-24T08:15:03.032Z,75.22
2018-12-24T08:18:32.836Z,75.38
2018-12-24T08:20:51.792Z,75.17
2018-12-24T08:26:09.726Z,75.46
2018-12-24T08:28:39.169Z,75.29
2018-12-24T08:31:08.602Z,75.11
2018-12-24T08:33:38.043Z,75.02
2018-12-24T08:36:07.456Z,75.08
2018-12-24T08:38:57.848Z,75.28
2018-12-24T08:41:39.210Z,75.70
2018-12-24T08:44:08.810Z,76.27
2018-12-24T08:46:38.277Z,76.62
2018-12-24T08:49:09.537Z,76.92
2018-12-24T08:51:39.112Z,77.33
2018-12-24T08:54:08.520Z,77.68
2018-12-24T08:56:37.934Z,78.00
2018-12-24T08:59:07.413Z,78.33
2018-12-24T09:01:36.840Z,78.60
2018-12-24T09:04:06.514Z,78.64
2018-12-24T09:06:36.024Z,78.72
2018-12-24T09:09:11.898Z,78.76
2018-12-24T09:11:41.330Z,78.77
2018-12-24T09:16:59.513Z,78.95
2018-12-24T09:22:29.345Z,79.53
2018-12-24T09:24:59.304Z,79.95
2018-12-24T09:28:08.175Z,80.07
2018-12-24T09:30:49.667Z,80.25
2018-12-24T09:33:19.168Z,80.15
2018-12-24T09:35:48.577Z,80.02
2018-12-24T09:38:18.045Z,80.07
2018-12-24T09:40:47.511Z,79.99
2018-12-24T09:43:16.995Z,79.81
2018-12-24T09:45:46.425Z,79.74
2018-12-24T09:53:59.820Z,79.45
2018-12-24T09:59:36.770Z,79.34
2018-12-24T10:02:08.837Z,79.27
2018-12-24T10:04:58.419Z,78.96
2018-12-24T10:07:40.345Z,78.56
2018-12-24T10:10:14.774Z,78.33
2018-12-24T10:12:44.257Z,78.10
2018-12-24T10:18:03.951Z,77.87
2018-12-24T10:20:33.648Z,77.83
2018-12-24T10:23:05.859Z,77.96
2018-12-24T10:28:10.508Z,77.83
2018-12-24T10:30:59.197Z,77.89
2018-12-24T10:33:28.841Z,77.70
2018-12-24T10:35:58.267Z,77.64
2018-12-24T10:38:27.747Z,77.43
2018-12-24T10:41:05.238Z,77.17
2018-12-24T10:43:34.953Z,77.08
2018-12-24T10:46:04.442Z,77.17
2018-12-24T10:48:34.110Z,77.27
2018-12-24T10:51:03.528Z,77.44
2018-12-24T10:53:33.214Z,77.46
2018-12-24T10:56:28.976Z,77.64
2018-12-24T10:58:58.564Z,77.91
2018-12-24T11:01:28.035Z,77.66
2018-12-24T11:03:57.535Z,77.52
2018-12-24T11:09:17.842Z,77.43
2018-12-24T11:14:49.129Z,77.51
2018-12-24T11:17:18.635Z,77.55
2018-12-24T11:20:07.608Z,77.48
2018-12-24T11:22:37.017Z,77.71
2018-12-24T11:25:06.436Z,77.78
2018-12-24T11:30:14.443Z,77.75
2018-12-24T11:35:25.120Z,78.01
2018-12-24T11:38:06.051Z,77.94
2018-12-24T11:40:35.452Z,77.93
2018-12-24T11:43:07.172Z,77.63
2018-12-24T11:45:36.611Z,77.63
2018-12-24T11:48:06.503Z,77.76
2018-12-24T11:50:36.039Z,77.81
2018-12-24T11:55:57.398Z,78.08
2018-12-24T11:58:27.314Z,78.33
2018-12-24T12:00:56.891Z,78.67
2018-12-24T12:03:26.612Z,78.87
2018-12-24T12:05:59.512Z,79.09
2018-12-24T12:08:35.391Z,79.22
2018-12-24T12:11:05.028Z,79.22
2018-12-24T12:13:34.461Z,79.31
2018-12-24T12:16:04.322Z,79.29
2018-12-24T12:18:36.904Z,79.47
2018-12-24T12:21:06.882Z,79.35
2018-12-24T12:23:37.398Z,79.35
2018-12-24T12:29:39.689Z,79.57
2018-12-24T12:32:09.635Z,79.33
2018-12-24T12:34:41.431Z,79.27
2018-12-24T12:37:11.346Z,79.07
2018-12-24T12:39:44.064Z,79.25
2018-12-24T12:42:13.972Z,79.18
2018-12-24T12:44:49.027Z,79.25
2018-12-24T12:47:18.191Z,79.37
2018-12-24T12:52:35.017Z,79.62
2018-12-24T12:55:16.292Z,79.71
2018-12-24T12:57:45.901Z,79.78
2018-12-24T13:00:15.355Z,79.75
2018-12-24T13:03:04.036Z,79.71
2018-12-24T13:08:27.333Z,79.55
2018-12-24T13:10:57.048Z,79.66
2018-12-24T13:13:26.462Z,79.79
2018-12-24T13:15:59.683Z,79.80
2018-12-24T13:18:27.379Z,79.80
2018-12-24T13:20:57.885Z,79.75
2018-12-24T13:23:31.177Z,79.83
2018-12-24T13:26:19.948Z,79.94
2018-12-24T13:28:50.508Z,80.10
2018-12-24T13:31:22.515Z,80.11
2018-12-24T13:36:42.647Z,80.19
2018-12-24T13:39:12.732Z,80.35
2018-12-24T13:41:42.171Z,80.59
2018-12-24T13:44:11.752Z,80.79
2018-12-24T13:46:55.589Z,80.89
2018-12-24T13:49:23.926Z,81.03
2018-12-24T13:51:53.892Z,81.27
2018-12-24T13:54:44.366Z,81.50
2018-12-24T14:00:07.998Z,81.94
2018-12-24T14:02:45.294Z,82.17
2018-12-24T14:08:23.976Z,82.59
2018-12-24T14:10:57.137Z,82.77
2018-12-24T14:16:16.954Z,83.16
2018-12-24T14:18:56.735Z,83.32
2018-12-24T14:24:01.464Z,83.41
2018-12-24T14:26:42.213Z,83.48
2018-12-24T14:29:11.839Z,83.55
2018-12-24T14:31:41.268Z,83.77
2018-12-24T14:34:10.732Z,83.84
2018-12-24T14:36:40.195Z,83.92
2018-12-24T14:39:09.623Z,84.01
2018-12-24T14:41:39.062Z,84.04
2018-12-24T14:46:43.266Z,84.07
2018-12-24T14:49:12.949Z,84.09
2018-12-24T14:51:42.372Z,84.02
2018-12-24T14:54:11.817Z,84.09
2018-12-24T14:56:41.356Z,84.12
2018-12-24T14:59:10.768Z,84.10
2018-12-24T15:01:40.373Z,84.04
2018-12-24T15:06:49.777Z,84.13
2018-12-24T15:09:30.731Z,84.16
2018-12-24T15:12:00.352Z,84.13
2018-12-24T15:14:29.842Z,83.93
2018-12-24T15:17:01.554Z,84.01
2018-12-24T15:19:53.802Z,83.93
2018-12-24T15:22:23.465Z,83.94
2018-12-24T15:24:52.987Z,83.95
2018-12-24T15:27:24.934Z,83.98
2018-12-24T15:29:54.656Z,84.03
2018-12-24T15:32:26.409Z,83.88
2018-12-24T15:34:55.840Z,83.80
2018-12-24T15:37:25.551Z,83.75
2018-12-24T15:39:54.981Z,83.60
2018-12-24T15:42:32.111Z,83.48
2018-12-24T15:45:23.532Z,83.28
2018-12-24T15:47:53.330Z,83.17
2018-12-24T15:50:22.740Z,83.06
2018-12-24T15:52:52.460Z,83.17
2018-12-24T15:55:21.943Z,83.15
2018-12-24T15:57:51.369Z,83.21
2018-12-24T16:00:21.165Z,83.21
2018-12-24T16:02:50.620Z,83.18
2018-12-24T16:05:20.034Z,83.18
2018-12-24T16:10:25.465Z,82.89
2018-12-24T16:12:58.099Z,82.81
2018-12-24T16:15:45.399Z,82.90
2018-12-24T16:18:16.887Z,82.67
2018-12-24T16:20:46.271Z,82.51
2018-12-24T16:23:15.704Z,82.41
2018-12-24T16:25:45.266Z,82.30
2018-12-24T16:28:14.690Z,82.20
2018-12-24T16:30:44.119Z,82.26
2018-12-24T16:33:13.654Z,82.41
2018-12-24T16:35:43.139Z,82.56
2018-12-24T16:38:12.565Z,82.68
2018-12-24T16:40:42.009Z,82.79
2018-12-24T16:43:11.450Z,82.78
2018-12-24T16:45:40.891Z,82.81
2018-12-24T16:48:11.432Z,82.94
2018-12-24T16:50:40.835Z,82.99
2018-12-24T16:53:10.234Z,83.06
2018-12-24T16:55:58.860Z,83.17
2018-12-24T16:58:29.145Z,83.21
2018-12-24T17:00:58.565Z,83.25
2018-12-24T17:03:28.024Z,83.33
2018-12-24T17:05:57.567Z,83.25
2018-12-24T17:08:27.159Z,83.23
2018-12-24T17:13:45.784Z,83.20
2018-12-24T17:16:34.543Z,83.23
2018-12-24T17:19:12.205Z,83.38
2018-12-24T17:21:41.707Z,83.49
2018-12-24T17:24:11.232Z,83.53
2018-12-24T17:26:58.961Z,83.63
2018-12-24T17:29:49.136Z,83.69
2018-12-24T17:32:29.754Z,83.76
2018-12-24T17:34:59.316Z,83.85
2018-12-24T17:37:28.819Z,83.95
2018-12-24T17:42:38.028Z,84.24
2018-12-24T17:45:07.615Z,84.32
2018-12-24T17:47:37.085Z,84.34
2018-12-24T17:52:42.655Z,84.36
2018-12-24T17:55:12.224Z,84.44
2018-12-24T17:58:00.052Z,84.35
2018-12-24T18:00:30.294Z,84.37
2018-12-24T18:03:00.418Z,84.55
2018-12-24T18:05:29.950Z,84.67
2018-12-24T18:07:59.723Z,84.84
2018-12-24T18:10:29.861Z,85.18
2018-12-24T18:13:37.450Z,85.32
2018-12-24T18:16:07.343Z,85.37
2018-12-24T18:18:37.021Z,85.29
2018-12-24T18:21:09.771Z,85.51
2018-12-24T18:23:39.201Z,85.50
2018-12-24T18:26:08.684Z,85.41
2018-12-24T18:28:38.524Z,85.37
2018-12-24T18:31:21.953Z,85.29
2018-12-24T18:34:41.484Z,85.15
2018-12-24T18:42:40.934Z,84.87
2018-12-24T18:47:55.302Z,84.91
2018-12-24T18:53:20.158Z,85.02
2018-12-24T18:58:49.918Z,85.07
2018-12-24T19:01:31.580Z,85.10
2018-12-24T19:06:37.442Z,85.33
2018-12-24T19:09:08.069Z,85.46
2018-12-24T19:11:37.434Z,85.48
2018-12-24T19:14:07.082Z,85.49
2018-12-24T19:16:36.650Z,85.60
2018-12-24T19:19:06.289Z,85.57
2018-12-24T19:21:55.122Z,85.68
2018-12-24T19:24:36.382Z,85.59
2018-12-24T19:27:26.326Z,85.61
2018-12-24T19:29:55.983Z,85.75
2018-12-24T19:32:25.382Z,85.81
2018-12-24T19:34:55.049Z,85.56
2018-12-24T19:38:05.184Z,85.41
2018-12-24T19:40:45.738Z,85.39
2018-12-24T19:43:15.231Z,85.22
2018-12-24T19:45:44.665Z,85.09
2018-12-24T19:50:49.620Z,85.06
2018-12-24T19:53:19.475Z,85.06
2018-12-24T19:55:48.926Z,85.29
2018-12-24T19:58:18.387Z,85.24
2018-12-24T20:00:47.865Z,85.12
2018-12-24T20:03:17.297Z,85.05
2018-12-24T20:05:46.751Z,85.15
2018-12-24T20:08:16.272Z,85.00
2018-12-24T20:10:46.082Z,85.02
2018-12-24T20:13:15.947Z,85.20
2018-12-24T20:15:45.485Z,85.07
2018-12-24T20:18:15.507Z,85.20
2018-12-24T20:20:45.123Z,85.31
2018-12-24T20:26:10.171Z,85.22
2018-12-24T20:28:40.568Z,85.11
2018-12-24T20:31:10.544Z,85.29
2018-12-24T20:33:47.768Z,85.17
2018-12-24T20:36:40.938Z,85.28
2018-12-24T20:39:10.788Z,85.35
2018-12-24T20:44:51.249Z,85.56
2018-12-24T20:51:03.215Z,85.69
2018-12-24T20:56:28.730Z,85.98
2018-12-24T20:59:19.302Z,86.05
2018-12-24T21:01:48.908Z,86.11
2018-12-24T21:04:42.017Z,86.05
2018-12-24T21:07:11.459Z,86.14
2018-12-24T21:09:41.429Z,86.26
2018-12-24T21:12:10.882Z,86.36
2018-12-24T21:14:40.346Z,86.44
2018-12-24T21:17:10.088Z,86.39
2018-12-24T21:19:39.499Z,86.33
2018-12-24T21:22:09.528Z,86.31
2018-12-24T21:24:39.518Z,86.05
2018-12-24T21:27:33.593Z,85.87
2018-12-24T21:35:59.865Z,85.44
2018-12-24T21:38:37.260Z,85.46
2018-12-24T21:44:09.140Z,85.30
2018-12-24T21:47:18.601Z,85.42
2018-12-24T21:50:02.363Z,85.36
2018-12-24T21:52:43.512Z,85.39
2018-12-24T21:55:13.850Z,85.44
2018-12-24T21:58:06.671Z,85.40
2018-12-24T22:00:36.234Z,85.34
2018-12-24T22:03:05.705Z,85.32
2018-12-24T22:05:35.160Z,85.50
2018-12-24T22:08:22.861Z,85.60
2018-12-24T22:13:46.792Z,85.73
2018-12-24T22:16:25.908Z,85.62
2018-12-24T22:19:14.521Z,85.44
2018-12-24T22:21:44.198Z,85.40
2018-12-24T22:24:16.399Z,85.31
2018-12-24T22:27:04.316Z,85.29
2018-12-24T22:29:34.023Z,85.05
2018-12-24T22:32:03.889Z,85.10
2018-12-24T22:34:33.573Z,84.91
2018-12-24T22:37:23.459Z,84.77
2018-12-24T22:42:38.620Z,84.20
2018-12-24T22:45:08.634Z,84.15
2018-12-24T22:47:38.495Z,83.97
2018-12-24T22:50:11.383Z,83.95
2018-12-24T22:52:59.882Z,84.00
2018-12-24T22:55:40.609Z,84.18
2018-12-24T22:58:13.781Z,84.19
2018-12-24T23:01:06.685Z,84.38
2018-12-24T23:03:37.191Z,84.51
2018-12-24T23:06:13.456Z,84.71
2018-12-24T23:09:04.638Z,84.81
2018-12-24T23:11:34.431Z,85.00
2018-12-24T23:14:04.436Z,85.04
2018-12-24T23:16:34.177Z,85.12
2018-12-24T23:19:04.211Z,85.23
2018-12-24T23:21:34.330Z,85.30
2018-12-24T23:24:23.008Z,85.45
2018-12-24T23:26:53.156Z,85.99
2018-12-24T23:29:23.581Z,85.93
2018-12-24T23:31:53.494Z,86.16
2018-12-24T23:34:22.955Z,86.23
2018-12-24T23:36:52.369Z,86.19
2018-12-24T23:39:22.057Z,86.16
2018-12-24T23:41:58.096Z,86.00
2018-12-24T23:44:23.195Z,85.99
2018-12-24T23:47:11.798Z,85.78
2018-12-24T23:52:36.800Z,85.99
2018-12-24T23:55:07.478Z,85.86
2018-12-24T23:57:56.422Z,85.68
